Terminal Aerodrome Forecast
Issued by NWS

Home | Current Version | Previous Version | Graphics & Text | Print | Product List | Glossary On
Versions: 1 2 3 4 5 6 7 8 9 10 11 12 13 14 15 16 17 18 19 20
000
FTUS43 KIWX 280520
TAFSBN
TAF
KSBN 280520Z 2806/2906 01006KT P6SM OVC050
     FM280900 36006KT P6SM OVC015
     FM281400 01008KT P6SM OVC008
     FM281700 01007KT P6SM BKN010
     FM282300 36007KT P6SM BKN020
     FM290100 36006KT P6SM SCT035
     FM290500 04005KT P6SM FEW140=

USA.gov is the U.S. government's official web portal to all federal, state and local government web resources and services.